Time;durP1;ratioP1;P1;durP2;ratioP2;P2;SDS_P1;SDS_P2;PMS_P1;PMS_P2;Temp;Humidity;BMP_temperature;BMP_pressure;BME280_temperature;BME280_humidity;BME280_pressure;Samples;Min_cycle;Max_cycle;Signal;HPM_P1;HPM_P2
2022/08/05 00:01:45;;;;;;;7.18;2.40;;;;;;;20.38;75.53;101507.25;4993630;28;20027;-70
2022/08/05 00:04:10;;;;;;;4.13;1.75;;;;;;;20.42;75.71;101521.47;4993604;28;20046;-70
2022/08/05 00:06:35;;;;;;;5.93;2.30;;;;;;;20.44;74.91;101524.69;4993836;28;20030;-69
2022/08/05 00:09:01;;;;;;;7.85;2.20;;;;;;;20.40;75.30;101536.69;4993596;28;20033;-69
2022/08/05 00:11:27;;;;;;;8.93;2.22;;;;;;;20.26;75.60;101551.13;4993450;28;20030;-70
2022/08/05 00:13:52;;;;;;;5.90;2.00;;;;;;;20.49;74.95;101537.13;4992255;28;20027;-69
2022/08/05 00:16:18;;;;;;;8.13;2.13;;;;;;;20.33;76.00;101524.72;4992125;28;20389;-70
2022/08/05 00:18:47;;;;;;;9.63;2.17;;;;;;;20.47;75.25;101521.59;4993544;28;20089;-71
2022/08/05 00:21:14;;;;;;;4.90;2.20;;;;;;;20.42;75.36;101510.19;4991977;28;20177;-70
2022/08/05 00:23:40;;;;;;;6.00;2.13;;;;;;;20.47;75.10;101515.53;5008569;28;20501;-70
2022/08/05 00:26:06;;;;;;;6.45;2.10;;;;;;;20.44;75.20;101511.56;4992043;28;20394;-70
2022/08/05 00:28:31;;;;;;;6.20;2.08;;;;;;;20.43;74.89;101502.09;4994432;28;20120;-69
2022/08/05 00:30:57;;;;;;;9.82;2.33;;;;;;;20.24;76.25;101508.56;4996184;28;20061;-70
2022/08/05 00:33:22;;;;;;;6.10;1.98;;;;;;;20.24;75.95;101506.72;4995687;28;20022;-70
2022/08/05 00:35:47;;;;;;;6.00;2.08;;;;;;;20.10;76.67;101509.84;4997031;28;20482;-69
2022/08/05 00:38:13;;;;;;;5.95;1.98;;;;;;;20.00;77.58;101500.75;4996853;28;20037;-70
2022/08/05 00:40:49;;;;;;;11.93;2.60;;;;;;;20.13;77.33;101502.31;4997002;28;20397;-70
2022/08/05 00:43:15;;;;;;;6.30;2.00;;;;;;;20.06;77.11;101512.16;4996899;28;20486;-70
2022/08/05 00:45:42;;;;;;;6.38;2.08;;;;;;;20.12;77.42;101508.59;4995649;28;20386;-71
2022/08/05 00:48:09;;;;;;;8.32;2.42;;;;;;;20.19;76.30;101511.06;4995532;28;20026;-69
2022/08/05 00:50:34;;;;;;;4.65;2.00;;;;;;;20.21;76.62;101511.63;4996696;28;20386;-70
2022/08/05 00:53:00;;;;;;;6.85;1.90;;;;;;;20.21;77.02;101516.88;4995209;28;20023;-69
2022/08/05 00:55:25;;;;;;;6.20;2.15;;;;;;;20.23;76.05;101526.13;4995380;28;20492;-69
2022/08/05 00:57:50;;;;;;;7.80;2.00;;;;;;;20.21;76.72;101533.44;4996621;28;20081;-69
2022/08/05 01:00:15;;;;;;;6.65;1.98;;;;;;;20.19;76.83;101524.97;4996541;28;20030;-70
2022/08/05 01:02:41;;;;;;;7.15;1.85;;;;;;;20.27;76.48;101521.19;4996471;28;20073;-69
2022/08/05 01:05:06;;;;;;;7.25;2.03;;;;;;;20.11;76.79;101516.69;4996442;28;20026;-70
2022/08/05 01:07:32;;;;;;;7.63;2.10;;;;;;;20.21;76.97;101503.78;4995148;28;20050;-69
2022/08/05 01:09:57;;;;;;;6.18;1.88;;;;;;;20.25;76.83;101513.59;4995144;28;20026;-71
2022/08/05 01:12:24;;;;;;;7.88;1.92;;;;;;;20.25;76.43;101526.69;4996155;28;20044;-70
2022/08/05 01:14:58;;;;;;;6.32;1.73;;;;;;;20.16;76.90;101527.28;4996241;28;20105;-70
2022/08/05 01:17:36;;;;;;;5.57;1.85;;;;;;;20.10;77.16;101533.47;4994940;28;20029;-70
2022/08/05 01:20:18;;;;;;;6.78;2.22;;;;;;;20.03;77.32;101523.09;4996174;28;20030;-70
2022/08/05 01:23:20;;;;;;;7.13;1.92;;;;;;;20.16;76.74;101529.91;4994632;28;20425;-70
2022/08/05 01:26:18;;;;;;;8.13;1.77;;;;;;;20.06;76.54;101531.31;4962173;28;20490;-69
2022/08/05 01:28:52;;;;;;;8.10;1.95;;;;;;;19.89;77.46;101527.00;4994776;28;20023;-70
2022/08/05 01:31:31;;;;;;;5.63;1.92;;;;;;;20.01;77.19;101519.91;4996074;28;20394;-70
2022/08/05 01:34:12;;;;;;;5.43;1.83;;;;;;;20.02;77.14;101519.69;4995826;28;20030;-70
2022/08/05 01:36:46;;;;;;;7.55;2.10;;;;;;;19.90;77.74;101518.09;4995891;28;20081;-69
2022/08/05 01:39:14;;;;;;;5.95;1.77;;;;;;;20.02;77.55;101539.84;4995703;28;20033;-69
2022/08/05 01:41:42;;;;;;;7.30;1.88;;;;;;;20.01;77.24;101533.03;4995789;28;20034;-70
2022/08/05 01:44:09;;;;;;;9.13;1.98;;;;;;;20.01;77.11;101538.28;4994402;28;20042;-70
2022/08/05 01:46:35;;;;;;;8.35;2.00;;;;;;;20.10;77.24;101539.50;4995794;28;20031;-71
2022/08/05 01:49:03;;;;;;;7.00;1.80;;;;;;;20.08;76.19;101532.88;4994428;28;20367;-71
2022/08/05 01:51:32;;;;;;;7.65;2.00;;;;;;;19.91;77.59;101532.81;4994349;28;20049;-71
2022/08/05 01:53:59;;;;;;;4.93;1.83;;;;;;;20.01;77.31;101546.13;4994212;28;20533;-71
2022/08/05 01:56:30;;;;;;;5.63;1.90;;;;;;;20.04;76.51;101554.34;4994292;28;20022;-68
2022/08/05 01:58:56;;;;;;;7.78;2.10;;;;;;;20.12;76.75;101555.03;4995585;28;20077;-68
2022/08/05 02:01:24;;;;;;;6.10;1.95;;;;;;;20.15;76.37;101565.84;4994151;28;20022;-70
2022/08/05 02:03:51;;;;;;;8.02;1.90;;;;;;;20.08;76.38;101556.50;4995456;28;20054;-69
2022/08/05 02:06:17;;;;;;;6.53;1.63;;;;;;;20.16;75.96;101561.41;4995604;28;20029;-70
2022/08/05 02:08:42;;;;;;;6.47;1.90;;;;;;;20.03;76.88;101550.13;4995251;28;20026;-69
2022/08/05 02:11:11;;;;;;;5.60;1.90;;;;;;;20.09;76.62;101542.38;4995420;28;20045;-69
2022/08/05 02:13:39;;;;;;;5.68;1.80;;;;;;;19.98;76.62;101528.25;4995211;28;20081;-69
2022/08/05 02:16:08;;;;;;;6.78;1.95;;;;;;;20.04;76.51;101533.34;4995145;28;20076;-69
2022/08/05 02:18:41;;;;;;;7.03;1.98;;;;;;;20.13;76.73;101543.50;4993858;28;20034;-69
2022/08/05 02:21:12;;;;;;;10.75;2.05;;;;;;;20.04;76.49;101543.84;4994977;28;20050;-69
2022/08/05 02:23:40;;;;;;;4.93;1.88;;;;;;;19.91;77.07;101540.66;4995014;28;20367;-68
2022/08/05 02:26:08;;;;;;;7.10;1.90;;;;;;;20.00;77.10;101547.97;4994903;28;20022;-69
2022/08/05 02:28:36;;;;;;;6.78;1.77;;;;;;;20.05;76.51;101549.88;4994850;28;20033;-69
2022/08/05 02:31:07;;;;;;;8.43;1.80;;;;;;;19.90;77.26;101545.13;4994882;28;20034;-69
2022/08/05 02:33:36;;;;;;;6.57;1.75;;;;;;;19.93;77.57;101536.78;4994756;28;20053;-69
2022/08/05 02:36:03;;;;;;;5.20;1.63;;;;;;;20.11;76.85;101537.66;4994760;28;20077;-69
2022/08/05 02:38:29;;;;;;;6.28;1.80;;;;;;;19.95;76.88;101534.75;4994676;28;20037;-71
2022/08/05 02:40:58;;;;;;;4.93;1.60;;;;;;;20.06;76.73;101539.16;4994719;28;20022;-70
2022/08/05 02:43:25;;;;;;;5.55;1.67;;;;;;;20.04;77.31;101537.81;4994705;28;20506;-69
2022/08/05 02:45:51;;;;;;;7.53;1.95;;;;;;;20.06;77.11;101541.00;4994528;28;20134;-69
2022/08/05 02:48:18;;;;;;;7.60;1.90;;;;;;;19.89;77.62;101533.03;4994643;28;20446;-70
2022/08/05 02:50:49;;;;;;;5.95;2.00;;;;;;;19.84;77.77;101541.59;4992897;28;20077;-69
2022/08/05 02:53:17;;;;;;;9.13;2.28;;;;;;;19.79;78.27;101535.44;4994389;28;20030;-69
2022/08/05 02:55:46;;;;;;;8.40;2.45;;;;;;;19.80;78.90;101532.59;4993495;28;20054;-69
2022/08/05 02:58:14;;;;;;;6.45;2.10;;;;;;;19.64;78.58;101530.63;4994483;28;20026;-69
2022/08/05 03:00:41;;;;;;;5.65;2.20;;;;;;;19.68;78.68;101528.38;4994281;28;20053;-69
2022/08/05 03:03:07;;;;;;;9.63;2.00;;;;;;;19.78;78.38;101518.13;4994441;28;20076;-69
2022/08/05 03:05:33;;;;;;;8.00;2.08;;;;;;;19.73;78.54;101520.63;4993024;28;20053;-69
2022/08/05 03:07:59;;;;;;;5.80;2.38;;;;;;;19.82;78.25;101514.81;4994175;28;20074;-70
2022/08/05 03:10:24;;;;;;;4.97;1.60;;;;;;;19.78;78.15;101518.91;4993354;28;20022;-69
2022/08/05 03:12:50;;;;;;;6.20;1.80;;;;;;;19.65;78.48;101524.41;4992775;28;20029;-70
2022/08/05 03:15:15;;;;;;;4.40;1.50;;;;;;;19.77;78.51;101517.31;4994046;28;20034;-69
2022/08/05 03:17:40;;;;;;;5.80;2.10;;;;;;;19.74;78.27;101533.53;4992860;28;20064;-70
2022/08/05 03:20:06;;;;;;;4.60;1.80;;;;;;;19.72;77.89;101525.09;4994069;28;20538;-70
2022/08/05 03:22:32;;;;;;;6.07;1.90;;;;;;;19.74;77.80;101527.50;4993865;28;20047;-70
2022/08/05 03:24:58;;;;;;;5.90;1.70;;;;;;;19.61;77.42;101531.09;4992806;28;20026;-69
2022/08/05 03:27:24;;;;;;;6.60;1.77;;;;;;;19.60;77.71;101522.44;4993946;28;20494;-70
2022/08/05 03:29:50;;;;;;;7.75;1.83;;;;;;;19.53;77.67;101534.06;4992733;28;20030;-70
2022/08/05 03:32:15;;;;;;;6.38;1.73;;;;;;;19.50;77.66;101542.38;4992696;28;20019;-69
2022/08/05 03:34:44;;;;;;;3.97;1.60;;;;;;;19.67;77.17;101539.91;4993736;28;20541;-70
2022/08/05 03:37:10;;;;;;;5.00;2.03;;;;;;;19.62;76.59;101540.53;4993889;28;20478;-70
2022/08/05 03:39:36;;;;;;;4.82;2.00;;;;;;;19.65;76.32;101529.66;4992703;28;20110;-70
2022/08/05 03:42:01;;;;;;;6.30;1.67;;;;;;;19.53;76.88;101526.97;4993781;28;20037;-69
2022/08/05 03:44:26;;;;;;;8.02;1.88;;;;;;;19.32;77.51;101520.50;4993759;28;20076;-70
2022/08/05 03:46:52;;;;;;;4.15;1.70;;;;;;;19.31;77.50;101534.63;4992523;28;20121;-70
2022/08/05 03:49:17;;;;;;;4.85;1.60;;;;;;;19.35;77.53;101529.72;4993837;28;20118;-70
2022/08/05 03:51:55;;;;;;;7.22;1.85;;;;;;;19.46;76.96;101534.19;4993676;28;20470;-70
2022/08/05 03:54:30;;;;;;;5.07;1.67;;;;;;;19.21;77.79;101533.59;4992266;28;20035;-70
2022/08/05 03:56:57;;;;;;;7.10;1.63;;;;;;;19.01;78.65;101534.69;4992356;28;20117;-70
2022/08/05 03:59:29;;;;;;;5.85;1.52;;;;;;;19.01;78.93;101533.88;4993691;28;20030;-70
2022/08/05 04:01:57;;;;;;;6.20;1.90;;;;;;;19.09;78.86;101546.66;4992390;28;20027;-71
2022/08/05 04:04:23;;;;;;;7.65;1.70;;;;;;;18.97;78.55;101546.66;4994900;28;20015;-70
2022/08/05 04:06:50;;;;;;;4.72;1.70;;;;;;;18.89;79.10;101546.97;4996221;28;20041;-70
2022/08/05 04:09:16;;;;;;;5.55;1.80;;;;;;;18.79;79.27;101541.44;4996253;28;20023;-70
2022/08/05 04:11:42;;;;;;;3.67;1.60;;;;;;;18.80;79.03;101551.72;4997455;28;20030;-70
2022/08/05 04:14:07;;;;;;;4.80;1.65;;;;;;;18.90;77.92;101554.59;4997347;28;20037;-70
2022/08/05 04:16:36;;;;;;;4.95;1.70;;;;;;;18.96;77.56;101555.53;4997274;28;20034;-69
2022/08/05 04:19:03;;;;;;;3.83;1.73;;;;;;;18.96;76.92;101558.16;4997288;28;20030;-70
2022/08/05 04:21:28;;;;;;;7.32;1.67;;;;;;;18.86;77.62;101558.66;4997145;28;20110;-70
2022/08/05 04:23:54;;;;;;;4.53;1.73;;;;;;;18.76;77.17;101555.81;4996031;28;20047;-70
2022/08/05 04:26:19;;;;;;;5.80;1.65;;;;;;;18.83;77.75;101559.13;4997376;28;20034;-69
2022/08/05 04:28:45;;;;;;;4.82;1.85;;;;;;;18.83;77.77;101555.72;4997174;28;20026;-71
2022/08/05 04:31:10;;;;;;;4.57;1.48;;;;;;;18.74;77.96;101549.19;4997569;28;20026;-70
2022/08/05 04:33:35;;;;;;;5.88;1.80;;;;;;;18.81;77.46;101542.81;4995757;28;20164;-70
2022/08/05 04:36:00;;;;;;;8.65;2.10;;;;;;;18.74;77.39;101551.81;4995782;28;20465;-70
2022/08/05 04:38:26;;;;;;;2.55;1.52;;;;;;;18.60;78.07;101544.09;4979687;28;20035;-69
2022/08/05 04:40:51;;;;;;;5.50;1.70;;;;;;;18.82;77.54;101549.69;4997016;28;20474;-68
2022/08/05 04:43:16;;;;;;;4.07;1.80;;;;;;;18.69;77.45;101552.44;4997001;28;20109;-71
2022/08/05 04:45:42;;;;;;;4.18;1.70;;;;;;;18.68;77.87;101550.84;4995563;28;20480;-70
2022/08/05 04:48:11;;;;;;;4.22;1.60;;;;;;;18.67;77.87;101552.66;4995594;28;20120;-69
2022/08/05 04:50:41;;;;;;;7.70;2.65;;;;;;;18.49;78.62;101550.06;4995289;28;20030;-69
2022/08/05 04:53:07;;;;;;;3.67;1.40;;;;;;;18.51;78.65;101558.50;4996619;28;20041;-70
2022/08/05 04:55:33;;;;;;;10.82;2.05;;;;;;;18.44;78.69;101555.97;4995412;28;20032;-69
2022/08/05 04:57:58;;;;;;;5.47;1.80;;;;;;;18.41;78.77;101555.59;4996306;28;20117;-69
2022/08/05 05:00:23;;;;;;;5.00;1.70;;;;;;;18.32;79.09;101559.53;4995593;28;20026;-69
2022/08/05 05:02:49;;;;;;;7.75;1.80;;;;;;;18.32;79.16;101555.09;4996484;28;20505;-69
2022/08/05 05:05:14;;;;;;;4.03;1.70;;;;;;;18.30;79.23;101564.19;4996545;28;20026;-70
2022/08/05 05:07:39;;;;;;;6.40;1.80;;;;;;;18.27;79.29;101561.00;4996428;28;20023;-70
2022/08/05 05:10:05;;;;;;;5.53;1.70;;;;;;;18.17;80.03;101560.72;4995154;28;20030;-69
2022/08/05 05:12:31;;;;;;;3.70;1.60;;;;;;;18.22;79.91;101568.72;4995036;28;20099;-69
2022/08/05 05:14:56;;;;;;;4.63;1.70;;;;;;;18.19;80.04;101565.72;4995943;28;20030;-69
2022/08/05 05:17:22;;;;;;;5.88;1.80;;;;;;;18.22;79.87;101555.63;4996332;28;20029;-71
2022/08/05 05:19:47;;;;;;;5.00;1.80;;;;;;;18.26;79.27;101555.97;4994925;28;20470;-69
2022/08/05 05:22:12;;;;;;;5.72;1.80;;;;;;;18.25;79.49;101557.81;4994693;28;20062;-69
2022/08/05 05:24:38;;;;;;;5.93;1.77;;;;;;;18.40;78.74;101554.81;4996224;28;20539;-71
2022/08/05 05:27:03;;;;;;;5.80;1.73;;;;;;;18.72;77.68;101554.59;4996188;28;20489;-70
2022/08/05 05:29:28;;;;;;;5.18;1.60;;;;;;;18.57;77.84;101556.84;4996175;28;20030;-70
2022/08/05 05:31:55;;;;;;;5.35;1.75;;;;;;;18.59;77.54;101560.81;4996078;28;20022;-70
2022/08/05 05:34:21;;;;;;;5.75;1.88;;;;;;;18.74;76.80;101559.66;4994642;28;20038;-69
2022/08/05 05:36:46;;;;;;;6.25;1.75;;;;;;;18.71;76.69;101558.25;4994680;28;20038;-69
2022/08/05 05:39:12;;;;;;;6.20;1.73;;;;;;;18.75;77.09;101567.28;4995929;28;20085;-72
2022/08/05 05:41:37;;;;;;;4.65;1.75;;;;;;;18.76;76.48;101570.69;4995906;28;20453;-70
2022/08/05 05:44:02;;;;;;;3.25;1.40;;;;;;;18.95;75.12;101577.47;4994617;28;20110;-70
2022/08/05 05:46:28;;;;;;;3.55;1.48;;;;;;;19.20;73.29;101571.31;4995704;28;20030;-70
2022/08/05 05:48:53;;;;;;;8.00;1.75;;;;;;;19.19;72.16;101577.53;4994484;28;20026;-70
2022/08/05 05:51:22;;;;;;;7.03;1.70;;;;;;;19.09;72.34;101565.78;4995588;28;20061;-70
2022/08/05 05:53:49;;;;;;;4.15;1.48;;;;;;;19.31;70.62;101566.06;4994173;28;20368;-71
2022/08/05 05:56:14;;;;;;;4.80;1.38;;;;;;;19.32;70.44;101567.66;4994358;28;20033;-72
2022/08/05 05:58:39;;;;;;;3.55;1.23;;;;;;;19.24;69.33;101565.38;4995548;28;20038;-71
2022/08/05 06:01:05;;;;;;;5.90;1.30;;;;;;;19.66;68.15;101575.81;4994238;28;20019;-69
2022/08/05 06:03:30;;;;;;;4.22;1.30;;;;;;;22.60;59.34;101565.44;4995380;28;20105;-69
2022/08/05 06:05:56;;;;;;;6.15;1.30;;;;;;;27.34;44.05;101569.41;4995545;28;20026;-70
2022/08/05 06:08:21;;;;;;;2.38;1.30;;;;;;;29.98;37.94;101564.09;4995316;28;20026;-72
2022/08/05 06:10:46;;;;;;;2.97;1.05;;;;;;;30.01;35.32;101566.97;4994082;28;20026;-71
2022/08/05 06:13:12;;;;;;;2.92;1.00;;;;;;;30.71;34.40;101573.66;4995351;28;20109;-70
2022/08/05 06:15:37;;;;;;;3.45;1.23;;;;;;;32.08;32.31;101568.44;4993926;28;20093;-70
2022/08/05 06:18:02;;;;;;;4.53;1.05;;;;;;;31.37;32.20;101573.13;4993906;28;20038;-70
2022/08/05 06:20:28;;;;;;;4.35;1.20;;;;;;;31.73;32.14;101569.44;4995102;28;20463;-71
2022/08/05 06:22:53;;;;;;;3.38;0.90;;;;;;;32.95;30.51;101576.38;4993674;28;20062;-72
2022/08/05 06:25:18;;;;;;;2.80;0.90;;;;;;;33.51;29.47;101564.81;4994829;28;20034;-71
2022/08/05 06:27:44;;;;;;;2.83;0.73;;;;;;;33.02;30.24;101582.03;4993148;28;20282;-71
2022/08/05 06:30:14;;;;;;;2.72;1.00;;;;;;;33.92;28.74;101580.19;4994898;28;20049;-70
2022/08/05 06:32:40;;;;;;;3.75;1.10;;;;;;;32.81;29.61;101595.28;4994814;28;20022;-71
2022/08/05 06:35:06;;;;;;;2.80;1.02;;;;;;;32.41;31.10;101593.91;4993607;28;20030;-70
2022/08/05 06:37:31;;;;;;;2.45;0.90;;;;;;;34.57;27.90;101586.78;4994797;28;20058;-69
2022/08/05 06:39:56;;;;;;;3.75;0.88;;;;;;;34.57;27.88;101592.16;4993425;28;20022;-70
2022/08/05 06:42:22;;;;;;;2.63;0.90;;;;;;;34.71;27.35;101596.47;4994741;28;20431;-71
2022/08/05 06:44:47;;;;;;;3.88;1.00;;;;;;;34.80;27.52;101597.16;4994799;28;20265;-70
2022/08/05 06:47:12;;;;;;;4.53;0.83;;;;;;;34.54;27.54;101600.84;4993293;28;20069;-71
2022/08/05 06:49:37;;;;;;;2.13;0.90;;;;;;;33.64;29.03;101604.81;4993346;28;20273;-72
2022/08/05 06:52:03;;;;;;;2.80;0.98;;;;;;;34.81;27.20;101610.25;4993146;28;20026;-71
2022/08/05 06:54:28;;;;;;;2.83;0.95;;;;;;;33.77;28.14;101616.38;4994463;28;20038;-70
2022/08/05 06:56:54;;;;;;;2.47;0.90;;;;;;;34.90;26.81;101606.66;4994380;28;20028;-70
2022/08/05 06:59:19;;;;;;;3.07;1.07;;;;;;;34.36;28.04;101615.53;4994446;28;20022;-69
2022/08/05 07:01:44;;;;;;;3.53;1.00;;;;;;;33.22;29.00;101626.06;4993343;28;20765;-69
2022/08/05 07:04:09;;;;;;;6.28;1.20;;;;;;;34.54;27.49;101622.31;4993987;28;20265;-69
2022/08/05 07:06:35;;;;;;;2.75;0.90;;;;;;;35.59;26.22;101621.19;4994531;28;20057;-69
2022/08/05 07:09:00;;;;;;;2.67;1.00;;;;;;;35.15;26.28;101626.31;4994422;28;20121;-70
2022/08/05 07:11:27;;;;;;;2.28;1.10;;;;;;;35.02;27.20;101623.59;4994231;28;20030;-70
2022/08/05 07:16:49;;;;;;;3.50;1.02;;;;;;;34.08;27.93;101617.97;4994104;28;20544;-71
2022/08/05 07:19:18;;;;;;;2.15;0.90;;;;;;;34.19;28.53;101621.81;4992864;28;20034;-70
2022/08/05 07:21:48;;;;;;;3.45;1.08;;;;;;;33.88;29.63;101632.88;4992612;28;20050;-71
2022/08/05 07:24:14;;;;;;;2.33;0.98;;;;;;;32.80;29.95;101628.53;4993979;28;20029;-69
2022/08/05 07:26:40;;;;;;;3.78;1.05;;;;;;;33.35;29.15;101634.25;4994063;28;20030;-70
2022/08/05 07:29:07;;;;;;;3.17;0.80;;;;;;;31.36;31.96;101630.28;4992815;28;20038;-70
2022/08/05 07:31:32;;;;;;;2.00;1.00;;;;;;;32.12;31.07;101636.19;4994004;28;20018;-69
2022/08/05 07:33:58;;;;;;;4.72;1.10;;;;;;;32.04;31.12;101633.50;4993983;28;20366;-70
2022/08/05 07:36:24;;;;;;;3.35;1.00;;;;;;;31.87;31.09;101655.59;4993787;28;20444;-70
2022/08/05 07:38:49;;;;;;;3.65;0.95;;;;;;;30.78;33.38;101650.59;4993800;28;20030;-70
2022/08/05 07:41:17;;;;;;;3.70;0.90;;;;;;;31.15;33.49;101649.44;4993721;28;20030;-70
2022/08/05 07:43:42;;;;;;;3.38;1.08;;;;;;;29.32;35.70;101651.34;4993853;28;20427;-70
2022/08/05 07:46:08;;;;;;;1.63;0.80;;;;;;;27.71;39.63;101652.94;4993788;28;20026;-70
2022/08/05 07:48:33;;;;;;;3.03;0.93;;;;;;;26.96;41.36;101659.38;4993810;28;20026;-70
2022/08/05 07:50:59;;;;;;;9.10;1.40;;;;;;;27.27;41.48;101658.34;4993662;28;20065;-70
2022/08/05 07:53:24;;;;;;;1.42;0.70;;;;;;;27.06;41.72;101663.00;4992372;28;20784;-69
2022/08/05 07:55:50;;;;;;;2.67;0.77;;;;;;;25.99;43.21;101675.69;4993691;28;20481;-70
2022/08/05 07:58:15;;;;;;;3.13;0.88;;;;;;;26.37;42.66;101677.94;4993849;28;20026;-69
2022/08/05 08:00:41;;;;;;;2.63;0.80;;;;;;;26.58;41.81;101674.16;4992340;28;20101;-69
2022/08/05 08:03:11;;;;;;;2.08;0.80;;;;;;;26.26;42.42;101680.63;4993574;28;20069;-69
2022/08/05 08:05:37;;;;;;;4.25;1.00;;;;;;;26.67;41.66;101682.34;4993248;28;20026;-70
2022/08/05 08:08:02;;;;;;;4.50;0.98;;;;;;;26.90;39.24;101683.53;4993209;28;20033;-71
2022/08/05 08:10:28;;;;;;;3.35;0.88;;;;;;;25.64;42.74;101695.06;4991914;28;20026;-69
2022/08/05 08:12:53;;;;;;;1.58;0.68;;;;;;;26.50;40.99;101693.31;4992154;28;20030;-69
2022/08/05 08:15:19;;;;;;;4.73;0.93;;;;;;;25.56;40.21;101696.38;4992332;28;20109;-69
2022/08/05 08:17:44;;;;;;;3.67;0.82;;;;;;;26.32;40.65;101703.38;4993488;28;20285;-70
2022/08/05 08:20:11;;;;;;;5.13;1.00;;;;;;;26.97;39.27;101703.38;4992111;28;20105;-71
2022/08/05 08:22:36;;;;;;;1.42;0.60;;;;;;;27.23;38.54;101706.69;4993412;28;20514;-70
2022/08/05 08:25:02;;;;;;;2.80;0.70;;;;;;;26.54;40.82;101700.41;4993440;28;20134;-70
2022/08/05 08:27:29;;;;;;;1.42;0.50;;;;;;;26.63;40.54;101707.81;4992243;28;20037;-69
2022/08/05 08:29:54;;;;;;;4.35;1.00;;;;;;;26.44;40.37;101711.06;4992123;28;20112;-69
2022/08/05 08:32:19;;;;;;;3.55;0.90;;;;;;;26.49;40.96;101716.31;4992153;28;20058;-69
2022/08/05 08:34:45;;;;;;;5.07;0.70;;;;;;;26.04;40.22;101714.63;4993034;28;20089;-69
2022/08/05 08:37:10;;;;;;;3.15;0.90;;;;;;;25.81;40.13;101715.94;4993400;28;20026;-69
2022/08/05 08:39:35;;;;;;;1.50;0.60;;;;;;;25.49;42.02;101717.03;4993285;28;20027;-69
2022/08/05 08:42:01;;;;;;;2.78;0.82;;;;;;;25.94;40.50;101707.47;4991798;28;20057;-69
2022/08/05 08:44:31;;;;;;;3.13;0.98;;;;;;;26.91;39.31;101711.66;4991987;28;20025;-69
2022/08/05 08:46:57;;;;;;;5.55;1.00;;;;;;;27.16;38.22;101726.63;4993299;28;20038;-69
2022/08/05 08:49:32;;;;;;;2.40;0.80;;;;;;;26.03;37.77;101721.75;4994068;28;20393;-69
2022/08/05 08:52:11;;;;;;;2.47;0.63;;;;;;;25.68;38.56;101725.22;4996737;28;20072;-69
2022/08/05 08:54:37;;;;;;;3.30;1.00;;;;;;;25.33;41.53;101723.34;4995493;28;20033;-70
2022/08/05 08:57:05;;;;;;;3.85;1.00;;;;;;;25.63;40.82;101725.19;4996442;28;20026;-70
2022/08/05 08:59:30;;;;;;;3.85;0.70;;;;;;;25.84;40.70;101732.13;4995467;28;20421;-69
2022/08/05 09:01:56;;;;;;;2.20;1.05;;;;;;;26.00;40.78;101727.59;4996660;28;20076;-70
2022/08/05 09:04:22;;;;;;;5.72;0.77;;;;;;;26.66;39.76;101723.97;4995208;28;20018;-69
2022/08/05 09:06:47;;;;;;;2.53;0.73;;;;;;;25.76;39.63;101739.78;4995218;28;20081;-69
2022/08/05 09:09:13;;;;;;;2.25;0.90;;;;;;;25.88;39.47;101732.38;4996482;28;20034;-68
2022/08/05 09:11:38;;;;;;;8.10;1.15;;;;;;;25.80;41.15;101743.47;4995176;28;20026;-69
2022/08/05 09:14:04;;;;;;;3.22;1.02;;;;;;;25.34;41.53;101735.50;4995065;28;20058;-70
2022/08/05 09:16:30;;;;;;;3.60;0.98;;;;;;;25.56;41.63;101738.72;4996239;28;20030;-69
2022/08/05 09:18:55;;;;;;;4.15;0.90;;;;;;;24.88;43.33;101744.09;4995071;28;20438;-69
2022/08/05 09:21:21;;;;;;;2.95;0.70;;;;;;;24.59;43.84;101746.38;4994687;28;20517;-70
2022/08/05 09:24:02;;;;;;;2.53;0.68;;;;;;;23.93;45.15;101745.94;4994654;28;20026;-70
2022/08/05 09:26:28;;;;;;;4.00;0.88;;;;;;;23.91;44.90;101761.25;4994828;28;20038;-69
2022/08/05 09:28:58;;;;;;;2.80;0.70;;;;;;;23.60;44.55;101759.13;4994843;28;20030;-69
2022/08/05 09:31:24;;;;;;;2.53;0.60;;;;;;;23.71;44.96;101759.22;4996039;28;20032;-70
2022/08/05 09:34:01;;;;;;;4.03;0.88;;;;;;;23.47;44.88;101766.63;4996149;28;20513;-69
2022/08/05 09:36:51;;;;;;;3.03;0.88;;;;;;;23.09;44.64;101763.09;4995932;28;20030;-69
2022/08/05 09:39:18;;;;;;;2.90;0.60;;;;;;;23.32;45.44;101770.72;4996168;28;20036;-70
2022/08/05 09:42:03;;;;;;;4.82;0.73;;;;;;;22.76;42.61;101767.44;4995883;28;20077;-69
2022/08/05 09:44:44;;;;;;;2.28;0.60;;;;;;;22.96;41.73;101785.38;4995948;28;20077;-68
2022/08/05 09:47:18;;;;;;;3.08;0.70;;;;;;;22.77;41.56;101779.56;4995737;28;20029;-68
2022/08/05 09:49:48;;;;;;;1.35;0.50;;;;;;;23.38;40.46;101775.00;4995612;28;20497;-68
2022/08/05 09:52:17;;;;;;;5.50;0.52;;;;;;;23.35;41.03;101786.03;4995783;28;20548;-68
2022/08/05 09:54:52;;;;;;;2.53;0.50;;;;;;;23.23;40.50;101788.03;4994220;28;20119;-69
2022/08/05 09:57:44;;;;;;;2.50;0.60;;;;;;;23.41;39.87;101789.53;4995540;28;20073;-70
2022/08/05 10:00:11;;;;;;;1.45;0.50;;;;;;;23.19;41.11;101786.94;4995127;28;20030;-69
2022/08/05 10:02:45;;;;;;;2.22;0.70;;;;;;;23.19;40.45;101793.00;4993411;28;20026;-69
2022/08/05 10:05:14;;;;;;;2.25;0.40;;;;;;;23.42;38.07;101791.94;4994250;28;20050;-70
2022/08/05 10:07:50;;;;;;;2.13;0.60;;;;;;;23.31;38.45;101795.50;4994184;28;20029;-69
2022/08/05 10:10:23;;;;;;;1.75;0.60;;;;;;;23.46;37.09;101796.72;4995359;28;20058;-69
2022/08/05 10:12:54;;;;;;;2.05;0.50;;;;;;;23.50;36.75;101803.88;4995174;28;20038;-69
2022/08/05 10:15:22;;;;;;;3.58;0.40;;;;;;;23.68;36.88;101800.09;4993999;28;20053;-69
2022/08/05 10:18:15;;;;;;;1.77;0.45;;;;;;;23.51;36.06;101802.84;4995228;28;20026;-69
2022/08/05 10:20:55;;;;;;;1.63;0.40;;;;;;;23.73;34.80;101796.72;4993621;28;20486;-69
2022/08/05 10:23:32;;;;;;;3.40;0.40;;;;;;;23.60;36.31;101803.19;4995068;28;20019;-71
2022/08/05 10:26:00;;;;;;;2.45;0.45;;;;;;;23.35;34.53;101815.06;4995010;28;20379;-68
2022/08/05 10:28:26;;;;;;;0.95;0.40;;;;;;;23.10;33.92;101806.84;4994416;28;20019;-68
2022/08/05 10:30:52;;;;;;;3.40;0.73;;;;;;;23.12;34.61;101812.69;4994915;28;20049;-68
2022/08/05 10:33:19;;;;;;;2.13;0.38;;;;;;;22.86;35.54;101814.97;4993597;28;20037;-70
2022/08/05 10:35:44;;;;;;;2.95;0.40;;;;;;;23.24;35.66;101823.09;4993669;28;20076;-68
2022/08/05 10:38:12;;;;;;;1.95;0.43;;;;;;;23.31;35.82;101821.09;4994830;28;20026;-69
2022/08/05 10:40:45;;;;;;;3.45;0.50;;;;;;;23.18;36.26;101820.41;4995015;28;20026;-69
2022/08/05 10:43:15;;;;;;;2.03;0.50;;;;;;;23.03;37.85;101827.34;4993484;28;20014;-69
2022/08/05 10:45:41;;;;;;;0.70;0.30;;;;;;;23.53;35.83;101826.31;4994679;28;20470;-70
2022/08/05 10:48:40;;;;;;;6.10;0.70;;;;;;;23.62;35.53;101830.91;4993407;28;20041;-69
2022/08/05 10:51:16;;;;;;;1.30;0.52;;;;;;;24.50;34.50;101838.53;4972702;28;20368;-69
2022/08/05 10:53:50;;;;;;;2.95;0.55;;;;;;;24.24;34.96;101840.19;4994657;28;20026;-70
2022/08/05 10:56:18;;;;;;;2.72;0.57;;;;;;;24.29;34.65;101842.88;4993128;28;20124;-70
2022/08/05 10:58:47;;;;;;;3.90;0.50;;;;;;;24.22;35.27;101842.28;4994434;28;20027;-69
2022/08/05 11:01:12;;;;;;;1.73;0.50;;;;;;;23.90;34.18;101844.13;4994467;28;20445;-69
2022/08/05 11:04:05;;;;;;;2.67;0.50;;;;;;;23.77;35.74;101846.13;4993167;28;20026;-69
2022/08/05 11:06:32;;;;;;;2.17;0.52;;;;;;;23.81;35.32;101862.25;4994411;28;20030;-69
2022/08/05 11:09:24;;;;;;;0.50;0.30;;;;;;;23.24;36.71;101863.44;4994163;28;20022;-69
2022/08/05 11:11:52;;;;;;;2.75;0.95;;;;;;;23.29;37.05;101857.44;4991211;28;20038;-69
2022/08/05 11:14:41;;;;;;;1.13;0.45;;;;;;;23.32;38.51;101860.38;5009228;28;20041;-69
2022/08/05 11:17:25;;;;;;;6.28;0.60;;;;;;;23.31;37.24;101863.28;4994126;28;20056;-70
2022/08/05 11:19:52;;;;;;;2.65;0.60;;;;;;;23.40;37.14;101867.88;4994064;28;20097;-70
2022/08/05 11:22:51;;;;;;;3.08;0.90;;;;;;;23.02;36.14;101867.91;4993147;28;20050;-68
2022/08/05 11:25:42;;;;;;;5.22;0.60;;;;;;;23.00;37.21;101876.06;4993436;28;20105;-69
2022/08/05 11:28:11;;;;;;;5.35;0.70;;;;;;;23.04;37.58;101882.44;4993326;28;20033;-68
2022/08/05 11:30:54;;;;;;;2.20;0.57;;;;;;;23.14;38.26;101892.34;4994822;28;20026;-69
2022/08/05 11:33:52;;;;;;;2.95;0.60;;;;;;;23.07;39.21;101887.22;4993164;28;20031;-69